This is the latest recevied weather packets stored in our database for station/object LRCT. If no packets are shown the sender has not sent any weather packets the latest 10 day(s).
| Time | Temp. | Humidity | Pressure | Rain* | Wind** | Luminosity | Snow |
|---|---|---|---|---|---|---|---|
| 1777283337 | 12.22° C | 35% | 1024 hPa | - | - | - | - |
| 1777282437 | 12.22° C | 35% | 1024 hPa | - | - | - | - |
| 1777281537 | 12.22° C | 35% | 1024 hPa | - | - | - | - |
| 1777280636 | 12.22° C | 35% | 1024 hPa | - | - | - | - |
| 1777279737 | 10° C | 32% | 1024 hPa | - | - | - | - |
| 1777278837 | 10° C | 32% | 1024 hPa | - | - | - | - |
| 1777277938 | 10° C | 32% | 1024 hPa | - | - | - | - |
| 1777277037 | 10° C | 32% | 1024 hPa | - | - | - | - |
| 1777276136 | 8.89° C | 40% | 1025 hPa | - | - | - | - |
| 1777275237 | 8.89° C | 40% | 1025 hPa | - | - | - | - |
| 1777274337 | 8.89° C | 40% | 1025 hPa | - | - | - | - |
| 1777273437 | 8.89° C | 40% | 1025 hPa | - | - | - | - |
| 1777272536 | 7.22° C | 46% | 1024 hPa | - | - | - | - |
| 1777271638 | 7.22° C | 46% | 1024 hPa | - | - | - | - |
| 1777270737 | 7.22° C | 46% | 1024 hPa | - | - | - | - |
| 1777269837 | 7.22° C | 46% | 1024 hPa | - | - | - | - |
| 1777268933 | 3.89° C | 56% | 1024 hPa | - | - | - | - |
| 1777268037 | 3.89° C | 56% | 1024 hPa | - | - | - | - |
| 1777267136 | 3.89° C | 56% | 1024 hPa | - | - | - | - |
| 1777266260 | 3.89° C | 56% | 1024 hPa | - | - | - | - |
| 1777265337 | 0° C | 75% | 1024 hPa | - | - | - | - |
| 1777263536 | 0° C | 75% | 1024 hPa | - | - | - | - |
| 1777262636 | 0° C | 75% | 1024 hPa | - | - | - | - |
| 1777261734 | 0° C | 75% | 1024 hPa | - | - | - | - |
| 1777260874 | -1.11° C | 80% | 1024 hPa | - | - | - | - |
* Rain since midnight (hover to see other rain measurements)
** Current wind speed in m/s (hover to see current wind gust speed)